Time,TemperatureF,DewpointF,PressureIn,WindDirection,WindDirectionDegrees,WindSpeedMPH,WindSpeedGustMPH,Humidity,HourlyPrecipIn,Conditions,Clouds,dailyrainin,SoftwareType,DateUTC
2013-06-17 00:01:00,67.2,64.2,29.91,SSW,196,0.0,1.0,90,0.00,,,0.00,Wunderground v.1.13,2013-06-17 04:01:00,
2013-06-17 00:06:00,67.2,63.8,29.91,SSW,196,0.0,2.0,89,0.00,,,0.00,Wunderground v.1.13,2013-06-17 04:06:00,
2013-06-17 00:11:00,67.2,63.8,29.91,SSW,199,0.0,2.0,89,0.00,,,0.00,Wunderground v.1.13,2013-06-17 04:11:00,
2013-06-17 00:16:00,67.1,63.7,29.90,SSW,199,2.0,2.0,89,0.00,,,0.00,Wunderground v.1.13,2013-06-17 04:16:00,
2013-06-17 00:21:00,67.0,63.6,29.91,SSW,200,0.0,2.0,89,0.00,,,0.00,Wunderground v.1.13,2013-06-17 04:21:00,
2013-06-17 00:26:00,66.8,63.8,29.91,SSW,200,0.0,3.0,90,0.00,,,0.00,Wunderground v.1.13,2013-06-17 04:26:00,
2013-06-17 00:31:00,66.7,63.7,29.91,SSW,200,0.0,0.0,90,0.00,,,0.00,Wunderground v.1.13,2013-06-17 04:31:00,
2013-06-17 00:36:00,66.8,63.8,29.91,SSW,200,0.0,1.0,90,0.00,,,0.00,Wunderground v.1.13,2013-06-17 04:36:00,
2013-06-17 00:41:00,66.7,63.4,29.91,SSW,200,0.0,0.0,89,0.00,,,0.00,Wunderground v.1.13,2013-06-17 04:41:00,
2013-06-17 00:46:00,66.5,63.5,29.91,SSW,200,0.0,1.0,90,0.00,,,0.00,Wunderground v.1.13,2013-06-17 04:46:00,
2013-06-17 00:51:00,66.5,63.5,29.91,SSW,200,0.0,1.0,90,0.00,,,0.00,Wunderground v.1.13,2013-06-17 04:51:00,
2013-06-17 00:56:00,66.4,63.7,29.91,SSW,200,0.0,1.0,91,0.00,,,0.00,Wunderground v.1.13,2013-06-17 04:56:00,
2013-06-17 01:02:00,66.4,63.7,29.91,SSW,200,0.0,0.0,91,0.00,,,0.00,Wunderground v.1.13,2013-06-17 05:02:00,
2013-06-17 01:08:00,66.4,63.7,29.90,SSW,200,0.0,0.0,91,0.00,,,0.00,Wunderground v.1.13,2013-06-17 05:08:00,
2013-06-17 01:14:00,66.6,63.6,29.90,SSW,200,0.0,0.0,90,0.00,,,0.00,Wunderground v.1.13,2013-06-17 05:14:00,
2013-06-17 01:20:00,66.5,63.5,29.90,SSW,200,0.0,0.0,90,0.00,,,0.00,Wunderground v.1.13,2013-06-17 05:20:00,
2013-06-17 01:26:00,66.2,63.5,29.90,SSW,200,0.0,0.0,91,0.00,,,0.00,Wunderground v.1.13,2013-06-17 05:26:00,
2013-06-17 01:31:00,65.9,63.5,29.90,SSW,200,0.0,0.0,92,0.00,,,0.00,Wunderground v.1.13,2013-06-17 05:31:00,
2013-06-17 01:37:00,65.8,63.4,29.90,SSW,200,0.0,0.0,92,0.00,,,0.00,Wunderground v.1.13,2013-06-17 05:37:00,
2013-06-17 01:43:00,65.8,63.7,29.89,SSW,200,0.0,0.0,93,0.00,,,0.00,Wunderground v.1.13,2013-06-17 05:43:00,
2013-06-17 01:49:00,66.3,63.9,29.90,SSW,200,0.0,0.0,92,0.00,,,0.00,Wunderground v.1.13,2013-06-17 05:49:00,
2013-06-17 01:55:00,66.5,63.8,29.90,SSW,200,0.0,0.0,91,0.00,,,0.00,Wunderground v.1.13,2013-06-17 05:55:00,
2013-06-17 02:01:00,66.7,64.0,29.90,SSW,200,0.0,0.0,91,0.00,,,0.00,Wunderground v.1.13,2013-06-17 06:01:00,
2013-06-17 02:06:00,66.6,63.9,29.90,SSW,200,0.0,0.0,91,0.00,,,0.00,Wunderground v.1.13,2013-06-17 06:06:00,
2013-06-17 02:12:00,66.5,63.8,29.90,SSW,200,0.0,0.0,91,0.00,,,0.00,Wunderground v.1.13,2013-06-17 06:12:00,
2013-06-17 02:17:00,66.4,63.7,29.90,SSW,200,0.0,0.0,91,0.00,,,0.00,Wunderground v.1.13,2013-06-17 06:17:00,
2013-06-17 02:23:00,65.9,63.2,29.90,SSW,200,0.0,0.0,91,0.00,,,0.00,Wunderground v.1.13,2013-06-17 06:23:00,
2013-06-17 02:29:00,65.7,63.3,29.90,SSW,200,0.0,0.0,92,0.00,,,0.00,Wunderground v.1.13,2013-06-17 06:29:00,
2013-06-17 02:35:00,65.9,63.8,29.90,SSW,200,0.0,0.0,93,0.00,,,0.00,Wunderground v.1.13,2013-06-17 06:35:00,
2013-06-17 02:40:00,66.1,63.7,29.90,SSW,200,0.0,0.0,92,0.00,,,0.00,Wunderground v.1.13,2013-06-17 06:40:00,
2013-06-17 02:46:00,66.4,64.0,29.90,SSW,200,0.0,0.0,92,0.00,,,0.00,Wunderground v.1.13,2013-06-17 06:46:00,
2013-06-17 02:52:00,66.7,64.0,29.90,SSW,204,0.0,3.0,91,0.00,,,0.00,Wunderground v.1.13,2013-06-17 06:52:00,
2013-06-17 02:58:00,67.0,64.3,29.90,SSW,205,0.0,1.0,91,0.00,,,0.00,Wunderground v.1.13,2013-06-17 06:58:00,
2013-06-17 03:03:00,67.3,64.3,29.90,SSW,205,0.0,0.0,90,0.00,,,0.00,Wunderground v.1.13,2013-06-17 07:03:00,
2013-06-17 03:08:00,67.4,64.4,29.89,SW,218,1.0,8.0,90,0.00,,,0.00,Wunderground v.1.13,2013-06-17 07:08:00,
2013-06-17 03:13:00,67.4,64.4,29.89,SW,216,0.0,1.0,90,0.00,,,0.00,Wunderground v.1.13,2013-06-17 07:13:00,
2013-06-17 03:18:00,67.3,64.3,29.89,SSW,213,1.0,4.0,90,0.00,,,0.00,Wunderground v.1.13,2013-06-17 07:18:00,
2013-06-17 03:23:00,67.4,64.4,29.90,SSW,213,0.0,1.0,90,0.00,,,0.00,Wunderground v.1.13,2013-06-17 07:23:00,
2013-06-17 03:28:00,67.3,64.3,29.89,SSW,213,1.0,3.0,90,0.00,,,0.00,Wunderground v.1.13,2013-06-17 07:28:00,
2013-06-17 03:33:00,67.3,64.3,29.89,SW,217,0.0,7.0,90,0.00,,,0.00,Wunderground v.1.13,2013-06-17 07:33:00,
2013-06-17 03:38:00,67.2,64.2,29.89,SW,217,0.0,0.0,90,0.00,,,0.00,Wunderground v.1.13,2013-06-17 07:38:00,
2013-06-17 03:43:00,67.1,64.1,29.89,SSW,213,0.0,4.0,90,0.00,,,0.00,Wunderground v.1.13,2013-06-17 07:43:00,
2013-06-17 03:48:00,67.0,64.0,29.89,SSW,213,0.0,1.0,90,0.00,,,0.00,Wunderground v.1.13,2013-06-17 07:48:00,
2013-06-17 03:53:00,66.7,64.0,29.89,SSW,213,0.0,0.0,91,0.00,,,0.00,Wunderground v.1.13,2013-06-17 07:53:00,
2013-06-17 03:58:00,66.5,64.1,29.89,SSW,213,0.0,1.0,92,0.00,,,0.00,Wunderground v.1.13,2013-06-17 07:58:00,
2013-06-17 04:03:00,66.4,64.0,29.89,SSW,213,0.0,1.0,92,0.00,,,0.00,Wunderground v.1.13,2013-06-17 08:03:00,
2013-06-17 04:08:00,66.3,63.9,29.89,SSW,213,0.0,0.0,92,0.00,,,0.00,Wunderground v.1.13,2013-06-17 08:08:00,
2013-06-17 04:13:00,66.4,64.3,29.89,SSW,213,0.0,0.0,93,0.00,,,0.00,Wunderground v.1.13,2013-06-17 08:13:00,
2013-06-17 04:18:00,66.5,64.4,29.89,SSW,204,0.0,6.0,93,0.00,,,0.00,Wunderground v.1.13,2013-06-17 08:18:00,
2013-06-17 04:23:00,66.8,64.4,29.89,SSW,204,0.0,4.0,92,0.00,,,0.00,Wunderground v.1.13,2013-06-17 08:23:00,
2013-06-17 04:28:00,67.2,64.8,29.89,SSW,204,0.0,1.0,92,0.00,,,0.00,Wunderground v.1.13,2013-06-17 08:28:00,
2013-06-17 04:33:00,67.3,64.6,29.89,SSW,204,0.0,3.0,91,0.00,,,0.00,Wunderground v.1.13,2013-06-17 08:33:00,
2013-06-17 04:38:00,67.4,64.7,29.89,SW,214,1.0,7.0,91,0.00,,,0.00,Wunderground v.1.13,2013-06-17 08:38:00,
2013-06-17 04:43:00,67.6,64.9,29.89,SSW,205,1.0,5.0,91,0.00,,,0.00,Wunderground v.1.13,2013-06-17 08:43:00,
2013-06-17 04:48:00,67.4,64.4,29.89,SSW,205,0.0,2.0,90,0.00,,,0.00,Wunderground v.1.13,2013-06-17 08:48:00,
2013-06-17 04:53:00,67.6,64.9,29.89,SSW,205,0.0,2.0,91,0.00,,,0.00,Wunderground v.1.13,2013-06-17 08:53:00,
2013-06-17 04:58:00,67.6,64.9,29.90,SSW,205,0.0,1.0,91,0.00,,,0.00,Wunderground v.1.13,2013-06-17 08:58:00,
2013-06-17 05:03:00,67.7,65.0,29.90,SSW,205,0.0,2.0,91,0.00,,,0.00,Wunderground v.1.13,2013-06-17 09:03:00,
2013-06-17 05:08:00,67.8,65.1,29.90,SSW,205,0.0,4.0,91,0.00,,,0.00,Wunderground v.1.13,2013-06-17 09:08:00,
2013-06-17 05:13:00,67.9,65.2,29.90,SSW,205,0.0,1.0,91,0.00,,,0.00,Wunderground v.1.13,2013-06-17 09:13:00,
2013-06-17 05:18:00,68.0,65.3,29.90,SSW,205,0.0,1.0,91,0.00,,,0.00,Wunderground v.1.13,2013-06-17 09:18:00,
2013-06-17 05:24:00,67.9,65.2,29.90,SSW,205,0.0,0.0,91,0.00,,,0.00,Wunderground v.1.13,2013-06-17 09:24:00,
2013-06-17 05:28:00,67.9,65.2,29.90,SSW,205,0.0,3.0,91,0.00,,,0.00,Wunderground v.1.13,2013-06-17 09:28:00,
2013-06-17 05:33:00,67.8,65.1,29.90,SSW,205,1.0,1.0,91,0.00,,,0.00,Wunderground v.1.13,2013-06-17 09:33:00,
2013-06-17 05:38:00,67.7,65.0,29.90,SSW,205,0.0,3.0,91,0.00,,,0.00,Wunderground v.1.13,2013-06-17 09:38:00,
2013-06-17 05:43:00,67.7,65.3,29.90,SSW,205,0.0,3.0,92,0.00,,,0.00,Wunderground v.1.13,2013-06-17 09:43:00,
2013-06-17 05:48:00,67.7,65.3,29.90,SSW,205,0.0,1.0,92,0.00,,,0.00,Wunderground v.1.13,2013-06-17 09:48:00,
2013-06-17 05:54:00,67.8,65.4,29.90,SSW,205,0.0,3.0,92,0.00,,,0.00,Wunderground v.1.13,2013-06-17 09:54:00,
2013-06-17 05:59:00,67.8,65.4,29.90,SSW,205,0.0,1.0,92,0.00,,,0.00,Wunderground v.1.13,2013-06-17 09:59:00,
2013-06-17 06:03:00,67.8,65.1,29.90,SSW,205,4.0,4.0,91,0.00,,,0.00,Wunderground v.1.13,2013-06-17 10:03:00,
2013-06-17 06:08:00,67.8,65.1,29.90,SW,215,6.0,6.0,91,0.00,,,0.00,Wunderground v.1.13,2013-06-17 10:08:00,
2013-06-17 06:14:00,67.9,65.2,29.90,SW,223,0.0,5.0,91,0.00,,,0.00,Wunderground v.1.13,2013-06-17 10:14:00,
2013-06-17 06:19:00,67.9,65.2,29.90,SW,223,0.0,2.0,91,0.00,,,0.00,Wunderground v.1.13,2013-06-17 10:19:00,
2013-06-17 06:24:00,67.9,65.2,29.90,SW,222,0.0,3.0,91,0.00,,,0.00,Wunderground v.1.13,2013-06-17 10:24:00,
2013-06-17 06:29:00,67.9,65.2,29.90,SW,223,0.0,4.0,91,0.00,,,0.00,Wunderground v.1.13,2013-06-17 10:29:00,
2013-06-17 06:34:00,67.9,65.2,29.91,SW,220,0.0,3.0,91,0.00,,,0.00,Wunderground v.1.13,2013-06-17 10:34:00,
2013-06-17 06:39:00,67.9,65.2,29.91,SW,220,0.0,3.0,91,0.00,,,0.00,Wunderground v.1.13,2013-06-17 10:39:00,
2013-06-17 06:44:00,67.9,65.2,29.91,SW,220,1.0,2.0,91,0.00,,,0.00,Wunderground v.1.13,2013-06-17 10:44:00,
2013-06-17 06:49:00,67.8,65.4,29.91,SW,220,0.0,4.0,92,0.00,,,0.00,Wunderground v.1.13,2013-06-17 10:49:00,
2013-06-17 06:54:00,67.6,65.2,29.91,SW,225,0.0,5.0,92,0.00,,,0.00,Wunderground v.1.13,2013-06-17 10:54:00,
2013-06-17 06:59:00,67.6,65.2,29.91,SW,225,0.0,1.0,92,0.00,,,0.00,Wunderground v.1.13,2013-06-17 10:59:00,
2013-06-17 07:04:00,67.6,65.2,29.91,SW,225,1.0,1.0,92,0.00,,,0.00,Wunderground v.1.13,2013-06-17 11:04:00,
2013-06-17 07:09:00,67.6,65.2,29.91,SW,226,0.0,6.0,92,0.00,,,0.00,Wunderground v.1.13,2013-06-17 11:09:00,
2013-06-17 07:14:00,67.5,65.1,29.91,SW,227,0.0,4.0,92,0.00,,,0.00,Wunderground v.1.13,2013-06-17 11:14:00,
2013-06-17 07:19:00,67.5,65.1,29.91,SW,227,0.0,3.0,92,0.00,,,0.00,Wunderground v.1.13,2013-06-17 11:19:00,
2013-06-17 07:24:00,67.5,65.1,29.91,SW,231,0.0,5.0,92,0.00,,,0.00,Wunderground v.1.13,2013-06-17 11:24:00,
2013-06-17 07:29:00,67.5,65.4,29.91,SW,231,0.0,3.0,93,0.00,,,0.00,Wunderground v.1.13,2013-06-17 11:29:00,
2013-06-17 07:34:00,67.5,65.4,29.91,SW,231,0.0,4.0,93,0.00,,,0.00,Wunderground v.1.13,2013-06-17 11:34:00,
2013-06-17 07:39:00,67.5,65.4,29.92,SW,231,0.0,2.0,93,0.00,,,0.00,Wunderground v.1.13,2013-06-17 11:39:00,
2013-06-17 07:44:00,67.5,65.4,29.92,SW,231,0.0,3.0,93,0.00,,,0.00,Wunderground v.1.13,2013-06-17 11:44:00,
2013-06-17 07:49:00,67.5,65.4,29.92,SW,231,0.0,2.0,93,0.00,,,0.00,Wunderground v.1.13,2013-06-17 11:49:00,
2013-06-17 07:54:00,67.6,65.5,29.92,SW,231,0.0,2.0,93,0.00,,,0.00,Wunderground v.1.13,2013-06-17 11:54:00,
2013-06-17 07:59:00,67.6,65.5,29.92,SW,231,0.0,2.0,93,0.00,,,0.00,Wunderground v.1.13,2013-06-17 11:59:00,
2013-06-17 08:04:00,67.7,65.6,29.92,SW,231,0.0,1.0,93,0.00,,,0.00,Wunderground v.1.13,2013-06-17 12:04:00,
2013-06-17 08:09:00,67.9,65.8,29.93,SW,231,0.0,2.0,93,0.00,,,0.00,Wunderground v.1.13,2013-06-17 12:09:00,
2013-06-17 08:14:00,68.0,65.9,29.93,SW,231,3.0,3.0,93,0.00,,,0.00,Wunderground v.1.13,2013-06-17 12:14:00,
2013-06-17 08:19:00,68.0,65.9,29.93,SW,231,0.0,1.0,93,0.00,,,0.00,Wunderground v.1.13,2013-06-17 12:19:00,
2013-06-17 08:24:00,68.0,65.9,29.93,SW,231,0.0,0.0,93,0.00,,,0.00,Wunderground v.1.13,2013-06-17 12:24:00,
2013-06-17 08:29:00,68.1,66.0,29.93,SW,231,0.0,0.0,93,0.00,,,0.00,Wunderground v.1.13,2013-06-17 12:29:00,
2013-06-17 08:34:00,68.1,66.0,29.93,SW,231,0.0,0.0,93,0.00,,,0.00,Wunderground v.1.13,2013-06-17 12:34:00,
2013-06-17 08:39:00,68.2,66.1,29.93,SW,231,0.0,0.0,93,0.00,,,0.00,Wunderground v.1.13,2013-06-17 12:39:00,
2013-06-17 08:44:00,68.2,66.1,29.93,SW,231,0.0,0.0,93,0.00,,,0.00,Wunderground v.1.13,2013-06-17 12:44:00,
2013-06-17 08:49:00,68.1,66.0,29.93,SW,231,0.0,1.0,93,0.00,,,0.00,Wunderground v.1.13,2013-06-17 12:49:00,
2013-06-17 08:54:00,68.3,66.2,29.93,SW,231,0.0,0.0,93,0.00,,,0.00,Wunderground v.1.13,2013-06-17 12:54:00,
2013-06-17 08:59:00,68.3,66.2,29.93,SW,231,0.0,0.0,93,0.00,,,0.00,Wunderground v.1.13,2013-06-17 12:59:00,
2013-06-17 09:04:00,68.5,66.1,29.93,SW,231,0.0,0.0,92,0.00,,,0.00,Wunderground v.1.13,2013-06-17 13:04:00,
2013-06-17 09:09:00,68.4,66.3,29.92,SW,231,0.0,1.0,93,0.00,,,0.00,Wunderground v.1.13,2013-06-17 13:09:00,
2013-06-17 09:14:00,68.8,66.4,29.92,SW,231,0.0,2.0,92,0.00,,,0.00,Wunderground v.1.13,2013-06-17 13:14:00,
2013-06-17 09:19:00,69.1,66.7,29.92,SW,231,0.0,4.0,92,0.00,,,0.00,Wunderground v.1.13,2013-06-17 13:19:00,
2013-06-17 09:24:00,69.3,66.6,29.92,SW,231,0.0,1.0,91,0.00,,,0.00,Wunderground v.1.13,2013-06-17 13:24:00,
2013-06-17 09:29:00,69.6,66.5,29.92,SW,231,1.0,2.0,90,0.00,,,0.00,Wunderground v.1.13,2013-06-17 13:29:00,
2013-06-17 09:34:00,69.6,66.2,29.92,SW,231,0.0,2.0,89,0.00,,,0.00,Wunderground v.1.13,2013-06-17 13:34:00,
2013-06-17 09:39:00,69.8,66.7,29.91,SW,231,0.0,2.0,90,0.00,,,0.00,Wunderground v.1.13,2013-06-17 13:39:00,
2013-06-17 09:44:00,69.9,66.5,29.91,SW,231,0.0,3.0,89,0.00,,,0.00,Wunderground v.1.13,2013-06-17 13:44:00,
2013-06-17 09:49:00,70.2,66.8,29.91,SW,231,0.0,3.0,89,0.00,,,0.00,Wunderground v.1.13,2013-06-17 13:49:00,
2013-06-17 09:55:00,70.6,66.9,29.91,SW,231,0.0,3.0,88,0.00,,,0.00,Wunderground v.1.13,2013-06-17 13:55:00,
2013-06-17 10:00:00,71.0,66.9,29.91,SW,231,4.0,4.0,87,0.00,,,0.00,Wunderground v.1.13,2013-06-17 14:00:00,
2013-06-17 10:05:00,71.4,67.0,29.91,SW,231,0.0,3.0,86,0.00,,,0.00,Wunderground v.1.13,2013-06-17 14:05:00,
2013-06-17 10:10:00,72.1,67.0,29.91,SW,231,1.0,4.0,84,0.00,,,0.00,Wunderground v.1.13,2013-06-17 14:10:00,
2013-06-17 10:15:00,71.7,66.3,29.91,SW,231,0.0,3.0,83,0.00,,,0.00,Wunderground v.1.13,2013-06-17 14:15:00,
2013-06-17 10:20:00,71.1,65.7,29.91,SW,231,0.0,1.0,83,0.00,,,0.00,Wunderground v.1.13,2013-06-17 14:20:00,
2013-06-17 10:25:00,71.9,66.1,29.91,SW,231,0.0,3.0,82,0.00,,,0.00,Wunderground v.1.13,2013-06-17 14:25:00,
2013-06-17 10:30:00,72.8,66.6,29.91,SW,231,0.0,2.0,81,0.00,,,0.00,Wunderground v.1.13,2013-06-17 14:30:00,
2013-06-17 10:34:00,73.0,66.5,29.91,SW,231,0.0,3.0,80,0.00,,,0.00,Wunderground v.1.13,2013-06-17 14:34:00,
2013-06-17 10:40:00,72.9,66.4,29.91,SW,231,0.0,5.0,80,0.00,,,0.00,Wunderground v.1.13,2013-06-17 14:40:00,
2013-06-17 10:45:00,72.8,66.6,29.91,SW,231,0.0,2.0,81,0.00,,,0.00,Wunderground v.1.13,2013-06-17 14:45:00,
2013-06-17 10:50:00,73.8,66.5,29.91,SW,231,0.0,4.0,78,0.00,,,0.00,Wunderground v.1.13,2013-06-17 14:50:00,
2013-06-17 10:55:00,74.0,66.7,29.91,SW,231,0.0,1.0,78,0.00,,,0.00,Wunderground v.1.13,2013-06-17 14:55:00,
2013-06-17 11:00:00,73.3,65.7,29.92,SW,231,0.0,1.0,77,0.00,,,0.00,Wunderground v.1.13,2013-06-17 15:00:00,
2013-06-17 11:05:00,73.7,67.1,29.91,SW,231,1.0,1.0,80,0.00,,,0.00,Wunderground v.1.13,2013-06-17 15:05:00,
2013-06-17 11:10:00,75.1,65.9,29.91,SW,231,0.0,0.0,73,0.00,,,0.00,Wunderground v.1.13,2013-06-17 15:10:00,
2013-06-17 11:15:00,75.1,65.1,29.91,SW,231,0.0,0.0,71,0.00,,,0.00,Wunderground v.1.13,2013-06-17 15:15:00,
2013-06-17 11:20:00,74.5,64.5,29.91,SW,231,0.0,0.0,71,0.00,,,0.00,Wunderground v.1.13,2013-06-17 15:20:00,
2013-06-17 11:25:00,74.3,66.2,29.92,SW,231,4.0,6.0,76,0.00,,,0.00,Wunderground v.1.13,2013-06-17 15:25:00,
2013-06-17 11:30:00,74.7,67.0,29.91,SW,231,0.0,1.0,77,0.00,,,0.00,Wunderground v.1.13,2013-06-17 15:30:00,
2013-06-17 11:35:00,75.8,66.9,29.91,SW,231,0.0,2.0,74,0.00,,,0.00,Wunderground v.1.13,2013-06-17 15:35:00,
2013-06-17 11:40:00,77.1,66.6,29.92,SW,231,0.0,3.0,70,0.00,,,0.00,Wunderground v.1.13,2013-06-17 15:40:00,
2013-06-17 11:45:00,76.7,65.3,29.92,SW,223,3.0,5.0,68,0.00,,,0.00,Wunderground v.1.13,2013-06-17 15:45:00,
2013-06-17 11:50:00,76.0,64.7,29.92,SW,220,1.0,1.0,68,0.00,,,0.00,Wunderground v.1.13,2013-06-17 15:50:00,
2013-06-17 11:55:00,76.8,66.3,29.92,West,273,3.0,3.0,70,0.00,,,0.00,Wunderground v.1.13,2013-06-17 15:55:00,
2013-06-17 12:00:00,75.9,67.0,29.92,WSW,237,0.0,2.0,74,0.00,,,0.00,Wunderground v.1.13,2013-06-17 16:00:00,
2013-06-17 12:05:00,76.7,67.8,29.92,WSW,237,0.0,1.0,74,0.00,,,0.00,Wunderground v.1.13,2013-06-17 16:05:00,
2013-06-17 12:10:00,77.2,65.4,29.91,WSW,237,3.0,5.0,67,0.00,,,0.00,Wunderground v.1.13,2013-06-17 16:10:00,
2013-06-17 12:15:00,77.2,65.8,29.91,SSW,205,8.0,8.0,68,0.00,,,0.00,Wunderground v.1.13,2013-06-17 16:15:00,
2013-06-17 12:20:00,77.5,64.8,29.91,SSW,200,0.0,3.0,65,0.00,,,0.00,Wunderground v.1.13,2013-06-17 16:20:00,
2013-06-17 12:26:00,77.4,64.7,29.91,SW,215,0.0,8.0,65,0.00,,,0.00,Wunderground v.1.13,2013-06-17 16:26:00,
2013-06-17 12:31:00,78.4,67.4,29.91,SSW,213,0.0,3.0,69,0.00,,,0.00,Wunderground v.1.13,2013-06-17 16:31:00,
2013-06-17 12:36:00,78.2,65.0,29.91,WSW,245,1.0,2.0,64,0.00,,,0.00,Wunderground v.1.13,2013-06-17 16:36:00,
2013-06-17 12:41:00,78.3,65.1,29.91,WSW,253,1.0,3.0,64,0.00,,,0.00,Wunderground v.1.13,2013-06-17 16:41:00,
2013-06-17 12:46:00,77.7,64.5,29.91,SSW,194,2.0,2.0,64,0.00,,,0.00,Wunderground v.1.13,2013-06-17 16:46:00,
2013-06-17 12:51:00,77.0,66.0,29.91,SSW,194,0.0,2.0,69,0.00,,,0.00,Wunderground v.1.13,2013-06-17 16:51:00,
2013-06-17 12:56:00,76.8,66.3,29.91,SSW,194,2.0,2.0,70,0.00,,,0.00,Wunderground v.1.13,2013-06-17 16:56:00,
2013-06-17 13:01:00,77.6,63.5,29.91,SSW,196,0.0,5.0,62,0.00,,,0.00,Wunderground v.1.13,2013-06-17 17:01:00,
2013-06-17 13:06:00,78.0,64.8,29.91,SSW,197,4.0,5.0,64,0.00,,,0.00,Wunderground v.1.13,2013-06-17 17:06:00,
2013-06-17 13:11:00,78.6,63.6,29.91,SSW,201,0.0,2.0,60,0.00,,,0.00,Wunderground v.1.13,2013-06-17 17:11:00,
2013-06-17 13:16:00,78.8,63.7,29.91,SW,228,3.0,7.0,60,0.00,,,0.00,Wunderground v.1.13,2013-06-17 17:16:00,
2013-06-17 13:21:00,79.2,65.5,29.91,SW,221,0.0,4.0,63,0.00,,,0.00,Wunderground v.1.13,2013-06-17 17:21:00,
2013-06-17 13:26:00,78.7,63.2,29.91,SW,230,0.0,5.0,59,0.00,,,0.00,Wunderground v.1.13,2013-06-17 17:26:00,
2013-06-17 13:31:00,78.8,62.8,29.91,SW,235,0.0,5.0,58,0.00,,,0.00,Wunderground v.1.13,2013-06-17 17:31:00,
2013-06-17 13:36:00,78.6,64.0,29.91,SW,235,0.0,6.0,61,0.00,,,0.00,Wunderground v.1.13,2013-06-17 17:36:00,
2013-06-17 13:41:00,79.2,63.1,29.91,SW,228,5.0,5.0,58,0.00,,,0.00,Wunderground v.1.13,2013-06-17 17:41:00,
2013-06-17 13:46:00,78.9,64.3,29.91,SW,216,3.0,9.0,61,0.00,,,0.00,Wunderground v.1.13,2013-06-17 17:46:00,
2013-06-17 13:51:00,78.8,65.1,29.91,SW,233,5.0,6.0,63,0.00,,,0.00,Wunderground v.1.13,2013-06-17 17:51:00,
2013-06-17 13:56:00,79.6,65.0,29.90,SW,233,0.0,3.0,61,0.00,,,0.00,Wunderground v.1.13,2013-06-17 17:56:00,
2013-06-17 14:01:00,79.8,63.7,29.90,SW,233,1.0,1.0,58,0.00,,,0.00,Wunderground v.1.13,2013-06-17 18:01:00,
2013-06-17 14:06:00,79.8,61.7,29.90,NW,304,3.0,5.0,54,0.00,,,0.00,Wunderground v.1.13,2013-06-17 18:06:00,
2013-06-17 14:11:00,80.1,63.5,29.90,NW,304,0.0,2.0,57,0.00,,,0.00,Wunderground v.1.13,2013-06-17 18:11:00,
2013-06-17 14:16:00,79.2,62.7,29.91,SW,234,1.0,3.0,57,0.00,,,0.00,Wunderground v.1.13,2013-06-17 18:16:00,
2013-06-17 14:21:00,79.1,63.5,29.90,SW,234,0.0,2.0,59,0.00,,,0.00,Wunderground v.1.13,2013-06-17 18:21:00,
2013-06-17 14:26:00,79.5,63.9,29.90,SW,234,0.0,6.0,59,0.00,,,0.00,Wunderground v.1.13,2013-06-17 18:26:00,
2013-06-17 14:31:00,79.9,64.3,29.90,WNW,294,2.0,4.0,59,0.00,,,0.00,Wunderground v.1.13,2013-06-17 18:31:00,
2013-06-17 14:36:00,80.1,65.0,29.90,WNW,297,3.0,3.0,60,0.00,,,0.00,Wunderground v.1.13,2013-06-17 18:36:00,
2013-06-17 14:41:00,79.9,65.7,29.90,WNW,294,0.0,1.0,62,0.00,,,0.00,Wunderground v.1.13,2013-06-17 18:41:00,
2013-06-17 14:46:00,80.3,65.1,29.90,West,261,0.0,7.0,60,0.00,,,0.00,Wunderground v.1.13,2013-06-17 18:46:00,
2013-06-17 14:51:00,79.6,64.5,29.90,SSW,205,4.0,6.0,60,0.00,,,0.00,Wunderground v.1.13,2013-06-17 18:51:00,
2013-06-17 14:56:00,79.6,65.0,29.89,South,190,2.0,6.0,61,0.00,,,0.00,Wunderground v.1.13,2013-06-17 18:56:00,
2013-06-17 15:01:00,78.8,64.2,29.90,SSW,192,0.0,2.0,61,0.00,,,0.00,Wunderground v.1.13,2013-06-17 19:01:00,
2013-06-17 15:06:00,79.5,64.4,29.90,SSW,192,0.0,2.0,60,0.00,,,0.00,Wunderground v.1.13,2013-06-17 19:06:00,
2013-06-17 15:11:00,79.6,64.5,29.89,SSW,194,0.0,1.0,60,0.00,,,0.00,Wunderground v.1.13,2013-06-17 19:11:00,
2013-06-17 15:16:00,79.1,65.0,29.89,SSW,194,1.0,2.0,62,0.00,,,0.00,Wunderground v.1.13,2013-06-17 19:16:00,
2013-06-17 15:21:00,78.8,65.1,29.89,SSW,194,0.0,2.0,63,0.00,,,0.00,Wunderground v.1.13,2013-06-17 19:21:00,
2013-06-17 15:26:00,79.9,65.7,29.89,SSW,194,0.0,1.0,62,0.00,,,0.00,Wunderground v.1.13,2013-06-17 19:26:00,
2013-06-17 15:31:00,80.3,66.6,29.88,SSW,194,2.0,2.0,63,0.00,,,0.00,Wunderground v.1.13,2013-06-17 19:31:00,
2013-06-17 15:36:00,79.9,66.2,29.88,SSW,192,2.0,4.0,63,0.00,,,0.00,Wunderground v.1.13,2013-06-17 19:36:00,
2013-06-17 15:41:00,79.8,66.5,29.88,South,191,0.0,4.0,64,0.00,,,0.00,Wunderground v.1.13,2013-06-17 19:41:00,
2013-06-17 15:46:00,80.0,66.3,29.88,SSW,192,0.0,4.0,63,0.00,,,0.00,Wunderground v.1.13,2013-06-17 19:46:00,
2013-06-17 15:51:00,79.4,64.3,29.88,SSW,194,0.0,4.0,60,0.00,,,0.00,Wunderground v.1.13,2013-06-17 19:51:00,
2013-06-17 15:56:00,79.3,64.2,29.88,SSW,194,0.0,1.0,60,0.00,,,0.00,Wunderground v.1.13,2013-06-17 19:56:00,
2013-06-17 16:01:00,79.3,64.7,29.88,SSW,194,0.0,1.0,61,0.00,,,0.00,Wunderground v.1.13,2013-06-17 20:01:00,
2013-06-17 16:07:00,80.0,65.8,29.87,SSW,194,0.0,1.0,62,0.00,,,0.00,Wunderground v.1.13,2013-06-17 20:07:00,
2013-06-17 16:12:00,79.9,64.3,29.87,SSW,195,0.0,3.0,59,0.00,,,0.00,Wunderground v.1.13,2013-06-17 20:12:00,
2013-06-17 16:17:00,79.3,65.6,29.88,SSW,195,0.0,1.0,63,0.00,,,0.00,Wunderground v.1.13,2013-06-17 20:17:00,
2013-06-17 16:22:00,79.3,63.7,29.88,SSW,195,0.0,5.0,59,0.00,,,0.00,Wunderground v.1.13,2013-06-17 20:22:00,
2013-06-17 16:27:00,79.5,64.4,29.88,SSW,197,4.0,4.0,60,0.00,,,0.00,Wunderground v.1.13,2013-06-17 20:27:00,
2013-06-17 16:32:00,79.2,64.6,29.87,SSW,202,1.0,6.0,61,0.00,,,0.00,Wunderground v.1.13,2013-06-17 20:32:00,
2013-06-17 16:37:00,79.0,65.3,29.87,SSW,202,0.0,1.0,63,0.00,,,0.00,Wunderground v.1.13,2013-06-17 20:37:00,
2013-06-17 16:42:00,79.3,66.5,29.87,SSW,202,0.0,3.0,65,0.00,,,0.00,Wunderground v.1.13,2013-06-17 20:42:00,
2013-06-17 16:47:00,79.6,65.9,29.87,SW,217,0.0,2.0,63,0.00,,,0.00,Wunderground v.1.13,2013-06-17 20:47:00,
2013-06-17 16:52:00,79.2,65.5,29.87,SW,217,0.0,3.0,63,0.00,,,0.00,Wunderground v.1.13,2013-06-17 20:52:00,
2013-06-17 16:57:00,78.9,64.3,29.87,SW,217,2.0,3.0,61,0.00,,,0.00,Wunderground v.1.13,2013-06-17 20:57:00,
2013-06-17 17:02:00,79.0,65.8,29.87,SW,217,0.0,1.0,64,0.00,,,0.00,Wunderground v.1.13,2013-06-17 21:02:00,
2013-06-17 17:07:00,79.4,65.7,29.86,SW,217,0.0,1.0,63,0.00,,,0.00,Wunderground v.1.13,2013-06-17 21:07:00,
2013-06-17 17:12:00,79.7,64.6,29.86,SW,217,0.0,1.0,60,0.00,,,0.00,Wunderground v.1.13,2013-06-17 21:12:00,
2013-06-17 17:17:00,79.3,66.5,29.86,SW,217,0.0,2.0,65,0.00,,,0.00,Wunderground v.1.13,2013-06-17 21:17:00,
2013-06-17 17:22:00,78.6,65.4,29.86,SW,221,3.0,3.0,64,0.00,,,0.00,Wunderground v.1.13,2013-06-17 21:22:00,
2013-06-17 17:27:00,78.0,65.7,29.85,SW,221,0.0,3.0,66,0.00,,,0.00,Wunderground v.1.13,2013-06-17 21:27:00,
2013-06-17 17:31:00,78.2,66.8,29.85,SW,221,0.0,0.0,68,0.00,,,0.00,Wunderground v.1.13,2013-06-17 21:31:00,
2013-06-17 17:36:00,78.8,66.5,29.85,SW,221,0.0,3.0,66,0.00,,,0.00,Wunderground v.1.13,2013-06-17 21:36:00,
2013-06-17 17:42:00,78.1,66.7,29.86,SW,223,3.0,3.0,68,0.00,,,0.00,Wunderground v.1.13,2013-06-17 21:42:00,
2013-06-17 17:47:00,77.3,64.6,29.86,SW,223,0.0,1.0,65,0.00,,,0.00,Wunderground v.1.13,2013-06-17 21:47:00,
2013-06-17 17:52:00,77.2,67.5,29.86,SW,223,0.0,1.0,72,0.00,,,0.00,Wunderground v.1.13,2013-06-17 21:52:00,
2013-06-17 17:57:00,77.1,67.4,29.86,SW,223,0.0,1.0,72,0.00,,,0.00,Wunderground v.1.13,2013-06-17 21:57:00,
2013-06-17 18:01:00,76.7,68.6,29.86,SW,223,0.0,0.0,76,0.00,,,0.00,Wunderground v.1.13,2013-06-17 22:01:00,
2013-06-17 18:06:00,76.1,68.4,29.85,SW,223,1.0,1.0,77,0.00,,,0.00,Wunderground v.1.13,2013-06-17 22:06:00,
2013-06-17 18:11:00,75.6,68.3,29.85,SW,223,0.0,0.0,78,0.00,,,0.00,Wunderground v.1.13,2013-06-17 22:11:00,
2013-06-17 18:16:00,75.5,68.2,29.85,SW,223,0.0,0.0,78,0.00,,,0.00,Wunderground v.1.13,2013-06-17 22:16:00,
2013-06-17 18:22:00,75.5,69.3,29.85,SW,223,0.0,0.0,81,0.00,,,0.00,Wunderground v.1.13,2013-06-17 22:22:00,
2013-06-17 18:27:00,75.9,68.5,29.84,SW,223,0.0,1.0,78,0.00,,,0.00,Wunderground v.1.13,2013-06-17 22:27:00,
2013-06-17 18:32:00,75.9,68.2,29.84,SW,223,0.0,1.0,77,0.00,,,0.00,Wunderground v.1.13,2013-06-17 22:32:00,
2013-06-17 18:37:00,76.6,66.5,29.85,SW,223,0.0,1.0,71,0.00,,,0.00,Wunderground v.1.13,2013-06-17 22:37:00,
2013-06-17 18:42:00,76.7,68.6,29.85,SW,223,0.0,1.0,76,0.00,,,0.00,Wunderground v.1.13,2013-06-17 22:42:00,
2013-06-17 18:47:00,75.5,68.2,29.85,SW,223,0.0,1.0,78,0.00,,,0.00,Wunderground v.1.13,2013-06-17 22:47:00,
2013-06-17 18:52:00,75.4,67.3,29.84,SW,223,0.0,1.0,76,0.00,,,0.00,Wunderground v.1.13,2013-06-17 22:52:00,
2013-06-17 18:57:00,74.8,68.2,29.85,SW,223,0.0,0.0,80,0.00,,,0.00,Wunderground v.1.13,2013-06-17 22:57:00,
2013-06-17 19:02:00,74.3,68.1,29.85,SW,223,0.0,0.0,81,0.00,,,0.00,Wunderground v.1.13,2013-06-17 23:02:00,
2013-06-17 19:07:00,74.0,68.2,29.85,SW,223,0.0,0.0,82,0.00,,,0.00,Wunderground v.1.13,2013-06-17 23:07:00,
2013-06-17 19:12:00,74.0,68.2,29.85,SW,223,0.0,1.0,82,0.00,,,0.00,Wunderground v.1.13,2013-06-17 23:12:00,
2013-06-17 19:17:00,73.7,68.2,29.85,SW,223,0.0,1.0,83,0.00,,,0.00,Wunderground v.1.13,2013-06-17 23:17:00,
2013-06-17 19:22:00,73.1,68.3,29.85,SW,223,0.0,0.0,85,0.00,,,0.00,Wunderground v.1.13,2013-06-17 23:22:00,
2013-06-17 19:27:00,72.8,68.0,29.85,SW,223,0.0,0.0,85,0.00,,,0.00,Wunderground v.1.13,2013-06-17 23:27:00,
2013-06-17 19:32:00,72.8,68.0,29.85,SW,223,0.0,1.0,85,0.00,,,0.00,Wunderground v.1.13,2013-06-17 23:32:00,
2013-06-17 19:37:00,72.2,67.4,29.85,SW,223,0.0,0.0,85,0.00,,,0.00,Wunderground v.1.13,2013-06-17 23:37:00,
2013-06-17 19:42:00,71.9,67.8,29.85,SW,223,0.0,0.0,87,0.00,,,0.00,Wunderground v.1.13,2013-06-17 23:42:00,
2013-06-17 19:47:00,71.3,67.2,29.86,SW,223,0.0,0.0,87,0.00,,,0.00,Wunderground v.1.13,2013-06-17 23:47:00,
2013-06-17 19:52:00,71.1,67.7,29.86,SW,223,0.0,0.0,89,0.00,,,0.00,Wunderground v.1.13,2013-06-17 23:52:00,
2013-06-17 19:57:00,70.7,67.3,29.86,SW,223,0.0,0.0,89,0.00,,,0.00,Wunderground v.1.13,2013-06-17 23:57:00,
2013-06-17 20:02:00,70.2,66.8,29.86,SW,223,0.0,0.0,89,0.00,,,0.00,Wunderground v.1.13,2013-06-18 00:02:00,
2013-06-17 20:07:00,70.0,66.9,29.86,SW,223,0.0,0.0,90,0.00,,,0.00,Wunderground v.1.13,2013-06-18 00:07:00,
2013-06-17 20:12:00,69.8,66.7,29.86,SW,223,0.0,0.0,90,0.00,,,0.00,Wunderground v.1.13,2013-06-18 00:12:00,
2013-06-17 20:17:00,69.5,66.4,29.86,SW,223,0.0,0.0,90,0.00,,,0.00,Wunderground v.1.13,2013-06-18 00:17:00,
2013-06-17 20:22:00,69.1,66.0,29.87,SW,223,0.0,0.0,90,0.00,,,0.00,Wunderground v.1.13,2013-06-18 00:22:00,
2013-06-17 20:27:00,68.8,66.1,29.87,SW,223,0.0,0.0,91,0.00,,,0.00,Wunderground v.1.13,2013-06-18 00:27:00,
2013-06-17 20:32:00,68.6,65.9,29.87,SW,223,0.0,0.0,91,0.00,,,0.00,Wunderground v.1.13,2013-06-18 00:32:00,
2013-06-17 20:37:00,68.3,65.9,29.87,SW,223,0.0,0.0,92,0.00,,,0.00,Wunderground v.1.13,2013-06-18 00:37:00,
2013-06-17 20:42:00,67.9,65.5,29.87,SW,223,0.0,0.0,92,0.00,,,0.00,Wunderground v.1.13,2013-06-18 00:42:00,
2013-06-17 20:47:00,67.5,65.1,29.87,SW,223,0.0,0.0,92,0.00,,,0.00,Wunderground v.1.13,2013-06-18 00:47:00,
2013-06-17 20:52:00,67.2,64.8,29.87,SW,223,0.0,0.0,92,0.00,,,0.00,Wunderground v.1.13,2013-06-18 00:52:00,
2013-06-17 20:57:00,66.8,64.7,29.88,SW,223,0.0,0.0,93,0.00,,,0.00,Wunderground v.1.13,2013-06-18 00:57:00,
2013-06-17 21:02:00,66.6,64.5,29.88,SW,223,0.0,0.0,93,0.00,,,0.00,Wunderground v.1.13,2013-06-18 01:02:00,
2013-06-17 21:07:00,66.4,64.3,29.88,SW,223,0.0,0.0,93,0.00,,,0.00,Wunderground v.1.13,2013-06-18 01:07:00,
2013-06-17 21:12:00,66.2,64.1,29.88,SW,223,0.0,0.0,93,0.00,,,0.00,Wunderground v.1.13,2013-06-18 01:12:00,
2013-06-17 21:17:00,66.1,64.3,29.88,SW,223,0.0,0.0,94,0.00,,,0.00,Wunderground v.1.13,2013-06-18 01:17:00,
2013-06-17 21:22:00,66.1,64.3,29.88,SW,223,0.0,0.0,94,0.00,,,0.00,Wunderground v.1.13,2013-06-18 01:22:00,
2013-06-17 21:27:00,65.8,64.0,29.88,SW,223,0.0,0.0,94,0.00,,,0.00,Wunderground v.1.13,2013-06-18 01:27:00,
2013-06-17 21:32:00,65.5,63.7,29.89,SW,223,0.0,0.0,94,0.00,,,0.00,Wunderground v.1.13,2013-06-18 01:32:00,
2013-06-17 21:37:00,65.3,63.8,29.89,SW,223,0.0,0.0,95,0.00,,,0.00,Wunderground v.1.13,2013-06-18 01:37:00,
2013-06-17 21:42:00,65.4,63.9,29.89,SW,223,0.0,0.0,95,0.00,,,0.00,Wunderground v.1.13,2013-06-18 01:42:00,
2013-06-17 21:47:00,65.3,63.8,29.89,SW,223,0.0,0.0,95,0.00,,,0.00,Wunderground v.1.13,2013-06-18 01:47:00,
2013-06-17 21:52:00,64.9,63.4,29.89,SW,223,0.0,0.0,95,0.00,,,0.00,Wunderground v.1.13,2013-06-18 01:52:00,
2013-06-17 21:57:00,64.7,63.2,29.89,SW,223,0.0,0.0,95,0.00,,,0.00,Wunderground v.1.13,2013-06-18 01:57:00,
2013-06-17 22:02:00,64.8,63.3,29.89,SW,223,0.0,0.0,95,0.00,,,0.00,Wunderground v.1.13,2013-06-18 02:02:00,
2013-06-17 22:07:00,64.8,63.3,29.89,SW,223,0.0,0.0,95,0.00,,,0.00,Wunderground v.1.13,2013-06-18 02:07:00,
2013-06-17 22:12:00,64.6,63.1,29.88,SW,223,0.0,0.0,95,0.00,,,0.00,Wunderground v.1.13,2013-06-18 02:12:00,
2013-06-17 22:17:00,64.6,63.1,29.88,SW,223,0.0,0.0,95,0.00,,,0.00,Wunderground v.1.13,2013-06-18 02:17:00,
2013-06-17 22:22:00,64.4,62.9,29.88,SW,223,0.0,0.0,95,0.00,,,0.00,Wunderground v.1.13,2013-06-18 02:22:00,
2013-06-17 22:27:00,64.2,62.7,29.88,SW,223,0.0,0.0,95,0.00,,,0.00,Wunderground v.1.13,2013-06-18 02:27:00,
2013-06-17 22:32:00,64.0,62.5,29.88,SW,223,0.0,0.0,95,0.00,,,0.00,Wunderground v.1.13,2013-06-18 02:32:00,
2013-06-17 22:37:00,63.9,62.7,29.88,SW,223,0.0,0.0,96,0.00,,,0.00,Wunderground v.1.13,2013-06-18 02:37:00,
2013-06-17 22:42:00,63.7,62.5,29.88,SW,223,0.0,0.0,96,0.00,,,0.00,Wunderground v.1.13,2013-06-18 02:42:00,
2013-06-17 22:47:00,63.8,62.6,29.88,SW,223,0.0,0.0,96,0.00,,,0.00,Wunderground v.1.13,2013-06-18 02:47:00,
2013-06-17 22:52:00,63.5,62.3,29.88,SW,223,0.0,0.0,96,0.00,,,0.00,Wunderground v.1.13,2013-06-18 02:52:00,
2013-06-17 22:57:00,63.3,62.1,29.88,SW,223,0.0,0.0,96,0.00,,,0.00,Wunderground v.1.13,2013-06-18 02:57:00,
2013-06-17 23:02:00,63.3,62.1,29.88,SW,223,0.0,0.0,96,0.00,,,0.00,Wunderground v.1.13,2013-06-18 03:02:00,
2013-06-17 23:07:00,63.1,61.9,29.88,SW,223,0.0,0.0,96,0.00,,,0.00,Wunderground v.1.13,2013-06-18 03:07:00,
2013-06-17 23:12:00,62.9,61.7,29.88,SW,223,0.0,0.0,96,0.00,,,0.00,Wunderground v.1.13,2013-06-18 03:12:00,
2013-06-17 23:17:00,62.9,61.7,29.88,SW,223,0.0,0.0,96,0.00,,,0.00,Wunderground v.1.13,2013-06-18 03:17:00,
2013-06-17 23:22:00,63.0,61.8,29.88,SW,223,0.0,0.0,96,0.00,,,0.00,Wunderground v.1.13,2013-06-18 03:22:00,
2013-06-17 23:27:00,62.9,61.7,29.88,SW,223,0.0,0.0,96,0.00,,,0.00,Wunderground v.1.13,2013-06-18 03:27:00,
2013-06-17 23:32:00,62.7,61.5,29.88,SW,223,0.0,0.0,96,0.00,,,0.00,Wunderground v.1.13,2013-06-18 03:32:00,
2013-06-17 23:37:00,62.4,61.2,29.88,SW,223,0.0,0.0,96,0.00,,,0.00,Wunderground v.1.13,2013-06-18 03:37:00,
2013-06-17 23:42:00,62.3,61.1,29.88,SW,223,0.0,0.0,96,0.00,,,0.00,Wunderground v.1.13,2013-06-18 03:42:00,
2013-06-17 23:47:00,62.1,60.9,29.88,SW,223,0.0,0.0,96,0.00,,,0.00,Wunderground v.1.13,2013-06-18 03:47:00,
2013-06-17 23:52:00,62.3,61.1,29.88,SW,223,0.0,0.0,96,0.00,,,0.00,Wunderground v.1.13,2013-06-18 03:52:00,
2013-06-17 23:57:00,62.0,60.8,29.88,SW,223,0.0,0.0,96,0.00,,,0.00,Wunderground v.1.13,2013-06-18 03:57:00,